LIC0015 LOWW-EHAM
Flight info
| Callsign | LIC0015 |
|---|---|
| Flight time | N/A |
| Altitude | 38000 |
| Route | BUWUT DCT DITIS DCT RAPET T843 DEMAB L604 RELBI L602 RKN |
| Aircraft | A320/M-SDE3FGHIRWY/LB1 |
Departure
| Time | 2026-04-25 11:49 |
|---|---|
| Airport | Vienna International Airport (LOWW) |
Arrival
| Time | N/A |
|---|---|
| Airport | Amsterdam Airport Schiphol (EHAM) |
| Time | Latitude | Longitude | Altitude | Speed | Heading |
|---|---|---|---|---|---|
| 2026-04-25 11:38 | 48.11401 | 16.57259 | 628 ft | 0 kts | 203° |
| 2026-04-25 11:46 | 48.11357 | 16.57298 | 615 ft | 13 kts | 147° |
| 2026-04-25 11:47 | 48.11283 | 16.57351 | 623 ft | 12 kts | 132° |
| 2026-04-25 11:47 | 48.11229 | 16.57493 | 618 ft | 17 kts | 116° |
| 2026-04-25 11:47 | 48.11147 | 16.57573 | 627 ft | 15 kts | 190° |
| 2026-04-25 11:47 | 48.11048 | 16.57506 | 633 ft | 16 kts | 208° |
| 2026-04-25 11:48 | 48.10968 | 16.57399 | 630 ft | 17 kts | 270° |
| 2026-04-25 11:48 | 48.11049 | 16.57138 | 632 ft | 57 kts | 295° |
| 2026-04-25 11:48 | 48.11329 | 16.56263 | 623 ft | 126 kts | 296° |
| 2026-04-25 11:48 | 48.11782 | 16.54866 | 775 ft | 167 kts | 296° |
| 2026-04-25 11:49 | 48.12309 | 16.53143 | 1279 ft | 193 kts | 283° |
| 2026-04-25 11:49 | 48.12134 | 16.51149 | 2099 ft | 205 kts | 242° |
| 2026-04-25 11:49 | 48.11104 | 16.49581 | 2856 ft | 223 kts | 225° |
| 2026-04-25 11:49 | 48.10174 | 16.47645 | 3391 ft | 240 kts | 258° |
| 2026-04-25 11:50 | 48.10271 | 16.45175 | 4246 ft | 246 kts | 294° |
| 2026-04-25 11:50 | 48.11380 | 16.43195 | 5278 ft | 253 kts | 320° |
| 2026-04-25 11:50 | 48.12745 | 16.41515 | 6372 ft | 256 kts | 318° |
| 2026-04-25 11:50 | 48.14082 | 16.39741 | 7387 ft | 259 kts | 317° |
| 2026-04-25 11:51 | 48.15412 | 16.37902 | 8409 ft | 261 kts | 316° |
| 2026-04-25 11:51 | 48.16748 | 16.36016 | 9422 ft | 266 kts | 316° |
| 2026-04-25 11:51 | 48.18112 | 16.34084 | 10273 ft | 277 kts | 316° |
| 2026-04-25 11:51 | 48.19573 | 16.32012 | 10684 ft | 302 kts | 316° |
| 2026-04-25 11:52 | 48.20609 | 16.30547 | 11026 ft | 313 kts | 316° |
| 2026-04-25 11:52 | 48.22219 | 16.28267 | 11797 ft | 322 kts | 316° |
| 2026-04-25 11:52 | 48.23864 | 16.25938 | 12656 ft | 328 kts | 316° |
| 2026-04-25 11:52 | 48.25532 | 16.23576 | 13557 ft | 331 kts | 315° |
| 2026-04-25 11:53 | 48.27221 | 16.21184 | 14346 ft | 336 kts | 315° |
| 2026-04-25 11:53 | 48.28930 | 16.18756 | 15125 ft | 340 kts | 315° |
| 2026-04-25 11:53 | 48.30653 | 16.16310 | 15959 ft | 343 kts | 315° |
| 2026-04-25 11:53 | 48.32396 | 16.13840 | 16774 ft | 346 kts | 315° |
| 2026-04-25 11:54 | 48.34156 | 16.11340 | 17572 ft | 349 kts | 315° |
| 2026-04-25 11:54 | 48.35930 | 16.08816 | 18326 ft | 353 kts | 314° |
| 2026-04-25 11:54 | 48.39530 | 16.03679 | 19642 ft | 360 kts | 314° |
| 2026-04-25 11:55 | 48.41351 | 16.01076 | 20340 ft | 362 kts | 314° |
| 2026-04-25 11:55 | 48.43181 | 15.98460 | 21014 ft | 364 kts | 314° |
| 2026-04-25 11:55 | 48.45028 | 15.95816 | 21669 ft | 367 kts | 313° |
| 2026-04-25 11:55 | 48.46890 | 15.93152 | 22318 ft | 370 kts | 313° |
| 2026-04-25 11:56 | 48.48761 | 15.90475 | 22950 ft | 373 kts | 313° |
| 2026-04-25 11:56 | 48.50651 | 15.87769 | 23564 ft | 376 kts | 313° |
| 2026-04-25 11:56 | 48.52558 | 15.85032 | 24083 ft | 379 kts | 313° |
| 2026-04-25 11:56 | 48.54478 | 15.82273 | 24595 ft | 382 kts | 313° |
| 2026-04-25 11:57 | 48.56409 | 15.79494 | 25095 ft | 385 kts | 313° |
| 2026-04-25 11:57 | 48.58352 | 15.76691 | 25586 ft | 388 kts | 312° |
| 2026-04-25 11:57 | 48.60310 | 15.73863 | 26036 ft | 391 kts | 312° |
| 2026-04-25 11:57 | 48.62287 | 15.71006 | 26514 ft | 394 kts | 312° |
| 2026-04-25 11:58 | 48.64278 | 15.68128 | 26994 ft | 397 kts | 312° |
| 2026-04-25 11:58 | 48.66282 | 15.65231 | 27448 ft | 399 kts | 312° |
| 2026-04-25 11:58 | 48.68297 | 15.62317 | 27943 ft | 402 kts | 312° |
| 2026-04-25 11:58 | 48.70129 | 15.59226 | 28460 ft | 398 kts | 303° |
| 2026-04-25 11:59 | 48.71599 | 15.55683 | 28925 ft | 397 kts | 296° |
| 2026-04-25 11:59 | 48.72947 | 15.52010 | 29373 ft | 400 kts | 296° |
| 2026-04-25 11:59 | 48.74299 | 15.48312 | 29804 ft | 402 kts | 296° |
| 2026-04-25 12:00 | 48.77024 | 15.40851 | 30524 ft | 407 kts | 296° |
| 2026-04-25 12:00 | 48.78398 | 15.37076 | 30856 ft | 409 kts | 296° |
| 2026-04-25 12:00 | 48.81307 | 15.29588 | 31553 ft | 415 kts | 302° |
| 2026-04-25 12:01 | 48.82995 | 15.26040 | 32017 ft | 414 kts | 302° |
| 2026-04-25 12:01 | 48.84678 | 15.22496 | 32497 ft | 412 kts | 302° |
| 2026-04-25 12:01 | 48.86349 | 15.18975 | 32970 ft | 411 kts | 302° |
| 2026-04-25 12:01 | 48.88016 | 15.15450 | 33447 ft | 409 kts | 302° |
| 2026-04-25 12:02 | 48.91334 | 15.08443 | 34347 ft | 407 kts | 302° |
| 2026-04-25 12:02 | 48.93019 | 15.04974 | 34734 ft | 407 kts | 303° |
| 2026-04-25 12:02 | 48.94714 | 15.01525 | 35104 ft | 407 kts | 303° |
| 2026-04-25 12:03 | 48.96409 | 14.98083 | 35485 ft | 406 kts | 303° |
| 2026-04-25 12:03 | 48.98103 | 14.94635 | 35872 ft | 405 kts | 303° |
| 2026-04-25 12:03 | 48.99787 | 14.91191 | 36241 ft | 405 kts | 303° |
| 2026-04-25 12:03 | 49.01465 | 14.87749 | 36658 ft | 403 kts | 303° |
| 2026-04-25 12:04 | 49.03130 | 14.84323 | 37034 ft | 402 kts | 303° |
| 2026-04-25 12:04 | 49.04792 | 14.80893 | 37376 ft | 401 kts | 303° |
| 2026-04-25 12:04 | 49.06443 | 14.77476 | 37704 ft | 400 kts | 303° |
| 2026-04-25 12:04 | 49.08098 | 14.74053 | 37994 ft | 401 kts | 303° |
| 2026-04-25 12:05 | 49.11405 | 14.67193 | 38054 ft | 401 kts | 304° |
| 2026-04-25 12:05 | 49.14697 | 14.60357 | 38051 ft | 401 kts | 304° |
| 2026-04-25 12:06 | 49.17998 | 14.53470 | 38051 ft | 401 kts | 303° |
| 2026-04-25 12:06 | 49.21296 | 14.46581 | 38051 ft | 401 kts | 303° |
| 2026-04-25 12:07 | 49.24594 | 14.39677 | 38049 ft | 401 kts | 303° |
| 2026-04-25 12:07 | 49.27881 | 14.32777 | 38037 ft | 401 kts | 303° |
| 2026-04-25 12:08 | 49.31166 | 14.25850 | 38065 ft | 401 kts | 303° |
| 2026-04-25 12:08 | 49.34455 | 14.18914 | 38067 ft | 401 kts | 303° |
| 2026-04-25 12:09 | 49.37730 | 14.11988 | 38063 ft | 401 kts | 303° |
| 2026-04-25 12:09 | 49.40997 | 14.05056 | 38060 ft | 401 kts | 303° |
| 2026-04-25 12:10 | 49.44262 | 13.98112 | 38060 ft | 400 kts | 303° |
| 2026-04-25 12:10 | 49.47524 | 13.91156 | 38049 ft | 400 kts | 303° |
| 2026-04-25 12:11 | 49.50759 | 13.84246 | 38050 ft | 400 kts | 303° |
| 2026-04-25 12:11 | 49.54009 | 13.77283 | 38051 ft | 400 kts | 303° |
| 2026-04-25 12:12 | 49.56727 | 13.71450 | 38053 ft | 400 kts | 303° |
| 2026-04-25 12:12 | 49.60498 | 13.63317 | 38051 ft | 400 kts | 303° |
| 2026-04-25 12:13 | 49.63739 | 13.56324 | 38070 ft | 400 kts | 303° |
| 2026-04-25 12:13 | 49.66968 | 13.49329 | 38066 ft | 400 kts | 303° |
| 2026-04-25 12:14 | 49.70192 | 13.42321 | 38071 ft | 400 kts | 303° |
| 2026-04-25 12:14 | 49.73408 | 13.35301 | 38067 ft | 400 kts | 303° |
| 2026-04-25 12:15 | 49.76623 | 13.28290 | 38060 ft | 399 kts | 303° |
| 2026-04-25 12:15 | 49.79832 | 13.21268 | 38064 ft | 399 kts | 303° |
| 2026-04-25 12:16 | 49.83037 | 13.14242 | 38047 ft | 399 kts | 303° |
| 2026-04-25 12:16 | 49.86240 | 13.07194 | 38058 ft | 400 kts | 303° |
| 2026-04-25 12:17 | 49.89432 | 13.00150 | 38053 ft | 399 kts | 303° |
| 2026-04-25 12:17 | 49.92624 | 12.93081 | 38079 ft | 399 kts | 303° |
| 2026-04-25 12:18 | 49.95812 | 12.85994 | 38071 ft | 400 kts | 303° |
| 2026-04-25 12:18 | 49.99004 | 12.78892 | 38060 ft | 401 kts | 303° |
| 2026-04-25 12:19 | 50.03800 | 12.68201 | 38053 ft | 403 kts | 303° |
| 2026-04-25 12:20 | 50.06985 | 12.61082 | 38054 ft | 403 kts | 303° |
| 2026-04-25 12:20 | 50.10189 | 12.53908 | 38055 ft | 404 kts | 303° |
| 2026-04-25 12:21 | 50.13389 | 12.46691 | 38056 ft | 404 kts | 303° |
| 2026-04-25 12:21 | 50.16583 | 12.39449 | 38035 ft | 405 kts | 303° |
| 2026-04-25 12:22 | 50.19306 | 12.31793 | 38044 ft | 404 kts | 289° |
| 2026-04-25 12:22 | 50.20728 | 12.23303 | 38042 ft | 405 kts | 284° |
| 2026-04-25 12:23 | 50.22066 | 12.14752 | 38065 ft | 405 kts | 284° |
| 2026-04-25 12:23 | 50.23403 | 12.06193 | 38072 ft | 406 kts | 284° |
| 2026-04-25 12:24 | 50.24513 | 11.99059 | 38064 ft | 406 kts | 284° |
| 2026-04-25 12:24 | 50.25854 | 11.90456 | 38063 ft | 408 kts | 284° |
| 2026-04-25 12:25 | 50.27200 | 11.81829 | 38063 ft | 409 kts | 284° |
| 2026-04-25 12:25 | 50.28541 | 11.73166 | 38092 ft | 410 kts | 284° |
| 2026-04-25 12:26 | 50.29869 | 11.64467 | 38087 ft | 411 kts | 284° |
| 2026-04-25 12:26 | 50.31182 | 11.55825 | 38069 ft | 411 kts | 284° |
| 2026-04-25 12:27 | 50.32490 | 11.47062 | 38065 ft | 411 kts | 284° |
| 2026-04-25 12:27 | 50.33781 | 11.38344 | 38069 ft | 411 kts | 284° |
| 2026-04-25 12:28 | 50.35063 | 11.29609 | 38080 ft | 412 kts | 284° |
| 2026-04-25 12:28 | 50.36335 | 11.20911 | 38090 ft | 412 kts | 284° |
| 2026-04-25 12:29 | 50.37609 | 11.12160 | 38081 ft | 412 kts | 284° |
| 2026-04-25 12:29 | 50.38884 | 11.03415 | 38089 ft | 411 kts | 284° |
| 2026-04-25 12:30 | 50.40155 | 10.94656 | 38094 ft | 412 kts | 284° |
| 2026-04-25 12:30 | 50.41416 | 10.85899 | 38102 ft | 412 kts | 284° |
| 2026-04-25 12:31 | 50.42667 | 10.77133 | 38111 ft | 412 kts | 284° |
| 2026-04-25 12:31 | 50.43904 | 10.68365 | 38089 ft | 412 kts | 284° |
| 2026-04-25 12:32 | 50.45165 | 10.59596 | 38095 ft | 412 kts | 284° |
| 2026-04-25 12:32 | 50.46435 | 10.50822 | 38102 ft | 412 kts | 284° |
| 2026-04-25 12:33 | 50.47694 | 10.42037 | 38108 ft | 412 kts | 284° |
| 2026-04-25 12:33 | 50.48917 | 10.33296 | 38111 ft | 412 kts | 283° |
| 2026-04-25 12:34 | 50.50136 | 10.24498 | 38104 ft | 412 kts | 284° |
| 2026-04-25 12:34 | 50.51349 | 10.15711 | 38106 ft | 411 kts | 283° |
| 2026-04-25 12:35 | 50.52557 | 10.06934 | 38105 ft | 411 kts | 283° |
| 2026-04-25 12:35 | 50.53926 | 9.98223 | 38108 ft | 409 kts | 292° |
| 2026-04-25 12:36 | 50.56783 | 9.90549 | 38108 ft | 408 kts | 309° |
| 2026-04-25 12:36 | 50.60431 | 9.83678 | 38115 ft | 409 kts | 309° |
| 2026-04-25 12:37 | 50.64077 | 9.76744 | 38104 ft | 409 kts | 309° |
| 2026-04-25 12:37 | 50.67697 | 9.69839 | 38113 ft | 409 kts | 309° |
| 2026-04-25 12:38 | 50.71315 | 9.62910 | 38114 ft | 409 kts | 309° |
| 2026-04-25 12:38 | 50.74908 | 9.56025 | 38118 ft | 409 kts | 309° |
| 2026-04-25 12:39 | 50.78526 | 9.49100 | 38116 ft | 408 kts | 309° |
| 2026-04-25 12:39 | 50.82160 | 9.42125 | 38119 ft | 408 kts | 309° |
| 2026-04-25 12:40 | 50.85746 | 9.35220 | 38111 ft | 409 kts | 309° |
| 2026-04-25 12:40 | 50.89377 | 9.28208 | 38109 ft | 409 kts | 309° |
| 2026-04-25 12:41 | 50.92958 | 9.21293 | 38114 ft | 409 kts | 309° |
| 2026-04-25 12:41 | 50.96554 | 9.14307 | 38120 ft | 409 kts | 308° |
| 2026-04-25 12:42 | 51.00151 | 9.07300 | 38135 ft | 409 kts | 308° |
| 2026-04-25 12:42 | 51.03740 | 9.00294 | 38128 ft | 408 kts | 308° |
| 2026-04-25 12:43 | 51.07320 | 8.93283 | 38130 ft | 408 kts | 308° |
| 2026-04-25 12:43 | 51.12672 | 8.82753 | 38134 ft | 408 kts | 308° |
| 2026-04-25 12:44 | 51.16234 | 8.75722 | 38137 ft | 408 kts | 308° |
| 2026-04-25 12:45 | 51.21579 | 8.65146 | 38140 ft | 408 kts | 308° |
| 2026-04-25 12:45 | 51.26912 | 8.54570 | 38158 ft | 407 kts | 308° |
| 2026-04-25 12:46 | 51.30446 | 8.47513 | 38155 ft | 406 kts | 308° |
| 2026-04-25 12:46 | 51.33972 | 8.40449 | 38166 ft | 405 kts | 308° |
| 2026-04-25 12:47 | 51.37509 | 8.33437 | 38159 ft | 405 kts | 308° |
| 2026-04-25 12:47 | 51.41062 | 8.26414 | 38157 ft | 405 kts | 308° |
| 2026-04-25 12:48 | 51.44588 | 8.19379 | 38163 ft | 404 kts | 308° |
| 2026-04-25 12:48 | 51.48102 | 8.12327 | 38154 ft | 404 kts | 308° |
| 2026-04-25 12:49 | 51.51610 | 8.05285 | 38162 ft | 404 kts | 308° |
| 2026-04-25 12:49 | 51.55122 | 7.98218 | 37825 ft | 403 kts | 308° |
| 2026-04-25 12:50 | 51.56869 | 7.94704 | 37543 ft | 402 kts | 308° |
| 2026-04-25 12:50 | 51.58617 | 7.91182 | 37176 ft | 402 kts | 308° |
| 2026-04-25 12:50 | 51.60363 | 7.87659 | 36446 ft | 403 kts | 308° |
| 2026-04-25 12:50 | 51.62114 | 7.84121 | 35684 ft | 406 kts | 308° |